Airfield :
LOGIN :

Register | Disclaimer

   EN    FR    IT 

 










Legend :    VFR   Marginal VFR   IFR   Intensive IFR   Very Intensive IFR
Visi :
Ceiling :
>= 8 km
>= 3000ft
5 to 8 km
1000 to 3000 ft
1500m to 5 km
500 to 1000 ft
800 to 1500m
200 to 500 ft
< 800m
< 200 ft
Symbols :   Thunderstorms  Fog  Heavy snow  Heavy precipitations  Wind > 20 kt
SIGMETs :     Misc.  Thunderstorms  Icing  Turbulence  Mountain Waves  Volcanic Ashes







- Airport Elevation : 184 ft
- IATA code : BRU


EBBR - Bruxelles

CURRENT METAR :
  • 180620Z 32008KT 8000 SCT017 BKN030 06/03 Q1020 NOSIG

EXPIRED METARs :
  • 180550Z 32010KT 8000 SCT019 SCT042 06/04 Q1019 NOSIG
  • 180520Z 32009KT 8000 SCT016 BKN046 06/04 Q1019 NOSIG
  • 180450Z 32010KT 9999 SCT013 BKN020 06/04 Q1019 NOSIG
  • 180420Z 32009KT 290V350 9999 BKN012 06/05 Q1018 NOSIG
  • 180350Z 32007KT 9999 -SHRA BKN010 06/05 Q1018 NOSIG

TAF TAF EBBR
Valid from the 18 at 06:00 until the 19 at 12:00 UTC


180517Z 1806/1912 33009KT 9999 SCT015 SCT030
PROB30
TEMPO 1806/1809 4500 SHRA BKN013
BECMG 1823/1901 2500 BR
PROB30
TEMPO 1901/1908 1200 BCFG
BECMG 1910/1912 7000 NSW
No reported NOTAMs for that airfield.
2 SIGMETs reported for the Brussels FIR (EBBU) :
 
Severe turbulence
EBBU SIGMET 02 VALID 180700/181100 EBBR
EBBU BRUSSELS FIR SEV TURB OBS E OF E004 FL250/400 MOV E NC=
Severe turbulence
EBBU SIGMET 01 VALID 180300/180700 EBBR
EBBU BRUSSELS FIR SEV TURB FCST ENTIRE FIR FL250/400 MOV E NC=



MET'MAP, your aeronautical weather chart ! - Copyright ORBIFLY December 2007 - Disclaimer

ORBIFLY MET'MAP TEAM :

Programming & Development : Alexandra Zaïnal
Concept & Development : Baudouin d'Aumeries
Co-Development & Prog : Marc-Olivier Méhu
Technical & hardware support : Manuel Goepfert

Contact : metmap@orbifly.com




SOURCES & CREDITS :

   NOAA